createdAt,value
2023-12-10T00:01:48.562Z,93.20
2023-12-10T00:04:15.687Z,93.20
2023-12-10T00:06:42.717Z,93.20
2023-12-10T00:09:09.715Z,93.20
2023-12-10T00:11:37.385Z,93.20
2023-12-10T00:14:04.665Z,93.20
2023-12-10T00:16:31.586Z,93.10
2023-12-10T00:18:59.295Z,93.20
2023-12-10T00:21:26.474Z,93.20
2023-12-10T00:23:53.672Z,93.10
2023-12-10T00:26:20.698Z,93.10
2023-12-10T00:28:47.709Z,93.10
2023-12-10T00:31:14.800Z,93.10
2023-12-10T00:33:42.428Z,93.00
2023-12-10T00:36:10.289Z,93.10
2023-12-10T00:38:39.448Z,93.10
2023-12-10T00:41:06.757Z,93.10
2023-12-10T00:43:33.962Z,93.10
2023-12-10T00:46:01.169Z,93.00
2023-12-10T00:48:28.539Z,93.00
2023-12-10T00:50:55.750Z,92.90
2023-12-10T00:53:23.027Z,92.90
2023-12-10T00:55:50.007Z,92.70
2023-12-10T00:58:17.190Z,92.60
2023-12-10T01:00:44.246Z,92.50
2023-12-10T01:03:11.495Z,92.40
2023-12-10T01:05:38.622Z,92.20
2023-12-10T01:08:05.828Z,92.00
2023-12-10T01:10:32.775Z,91.80
2023-12-10T01:12:59.811Z,91.50
2023-12-10T01:15:33.178Z,91.20
2023-12-10T01:18:02.318Z,90.90
2023-12-10T01:20:30.815Z,90.60
2023-12-10T01:22:58.532Z,90.00
2023-12-10T01:25:26.525Z,89.30
2023-12-10T01:27:56.990Z,87.70
2023-12-10T01:30:26.832Z,86.40
2023-12-10T01:32:57.471Z,85.60
2023-12-10T01:35:24.883Z,84.90
2023-12-10T01:37:52.720Z,84.70
2023-12-10T01:40:20.715Z,84.60
2023-12-10T01:42:48.283Z,84.40
2023-12-10T01:45:15.587Z,84.40
2023-12-10T01:47:44.019Z,84.50
2023-12-10T01:50:12.860Z,84.60
2023-12-10T01:52:50.192Z,84.70
2023-12-10T01:55:17.924Z,84.60
2023-12-10T01:57:45.142Z,84.60
2023-12-10T02:00:13.449Z,84.70
2023-12-10T02:02:41.641Z,84.70
2023-12-10T02:05:10.089Z,85.20
2023-12-10T02:07:38.353Z,85.20
2023-12-10T02:10:07.584Z,85.00
2023-12-10T02:12:35.820Z,84.90
2023-12-10T02:15:20.258Z,84.90
2023-12-10T02:17:49.004Z,84.90
2023-12-10T02:20:17.353Z,85.10
2023-12-10T02:23:00.132Z,85.20
2023-12-10T02:25:37.889Z,85.20
2023-12-10T02:28:06.514Z,85.40
2023-12-10T02:30:34.548Z,85.40
2023-12-10T02:33:02.570Z,85.40
2023-12-10T02:35:30.118Z,85.30
2023-12-10T02:37:57.173Z,85.40
2023-12-10T02:40:24.532Z,85.20
2023-12-10T02:42:51.852Z,85.10
2023-12-10T02:45:19.153Z,85.10
2023-12-10T02:47:46.639Z,85.20
2023-12-10T02:54:26.220Z,85.50
2023-12-10T02:56:53.435Z,85.60
2023-12-10T02:59:20.479Z,85.50
2023-12-10T03:01:47.741Z,85.70
2023-12-10T03:04:14.694Z,85.90
2023-12-10T03:06:42.082Z,85.90
2023-12-10T03:09:09.922Z,86.00
2023-12-10T03:11:37.467Z,86.20
2023-12-10T03:14:05.694Z,86.50
2023-12-10T03:16:32.924Z,86.60
2023-12-10T03:19:00.167Z,86.60
2023-12-10T03:21:27.545Z,86.60
2023-12-10T03:23:56.849Z,87.00
2023-12-10T03:26:24.126Z,86.80
2023-12-10T03:28:51.067Z,86.90
2023-12-10T03:31:18.305Z,86.80
2023-12-10T03:33:45.567Z,86.90
2023-12-10T03:36:13.040Z,86.90
2023-12-10T03:38:40.154Z,86.90
2023-12-10T03:41:07.167Z,87.00
2023-12-10T03:43:34.216Z,87.00
2023-12-10T03:46:01.286Z,87.00
2023-12-10T03:48:28.478Z,87.00
2023-12-10T03:50:55.437Z,87.00
2023-12-10T03:53:22.528Z,86.80
2023-12-10T03:55:49.876Z,86.80
2023-12-10T03:58:16.918Z,86.80
2023-12-10T04:00:44.717Z,86.80
2023-12-10T04:03:11.989Z,86.60
2023-12-10T04:05:39.153Z,86.70
2023-12-10T04:08:06.102Z,86.40
2023-12-10T04:10:33.055Z,86.30
2023-12-10T04:13:00.149Z,86.30
2023-12-10T04:15:28.077Z,86.00
2023-12-10T04:17:55.196Z,86.00
2023-12-10T04:20:22.214Z,85.90
2023-12-10T04:22:49.280Z,86.00
2023-12-10T04:25:16.273Z,86.00
2023-12-10T04:27:43.767Z,86.00
2023-12-10T04:30:11.661Z,85.90
2023-12-10T04:32:38.701Z,86.00
2023-12-10T04:35:06.120Z,85.90
2023-12-10T04:37:33.340Z,85.80
2023-12-10T04:40:00.354Z,85.50
2023-12-10T04:42:28.121Z,85.50
2023-12-10T04:44:56.636Z,85.40
2023-12-10T04:47:23.604Z,85.20
2023-12-10T04:49:51.107Z,85.20
2023-12-10T04:52:19.352Z,85.00
2023-12-10T04:54:46.629Z,84.90
2023-12-10T04:57:15.485Z,84.70
2023-12-10T04:59:43.414Z,84.50
2023-12-10T05:02:10.664Z,84.20
2023-12-10T05:04:37.636Z,84.20
2023-12-10T05:07:04.711Z,84.10
2023-12-10T05:09:33.628Z,84.00
2023-12-10T05:12:00.792Z,84.00
2023-12-10T05:14:27.743Z,84.00
2023-12-10T05:16:54.751Z,84.00
2023-12-10T05:19:21.854Z,84.00
2023-12-10T05:21:48.981Z,84.00
2023-12-10T05:24:16.017Z,84.10
2023-12-10T05:26:43.054Z,84.20
2023-12-10T05:29:10.632Z,84.50
2023-12-10T05:31:37.572Z,84.60
2023-12-10T05:34:04.523Z,84.60
2023-12-10T05:36:31.692Z,84.50
2023-12-10T05:38:58.972Z,84.40
2023-12-10T05:41:25.877Z,84.50
2023-12-10T05:43:52.851Z,84.50
2023-12-10T05:46:20.098Z,84.40
2023-12-10T05:48:47.184Z,84.30
2023-12-10T05:51:14.308Z,84.30
2023-12-10T05:53:41.275Z,84.40
2023-12-10T05:56:09.187Z,84.40
2023-12-10T05:58:36.862Z,84.20
2023-12-10T06:01:04.212Z,84.00
2023-12-10T06:03:32.002Z,84.00
2023-12-10T06:05:59.123Z,83.90
2023-12-10T06:08:26.602Z,83.80
2023-12-10T06:10:53.596Z,83.90
2023-12-10T06:13:21.093Z,83.80
2023-12-10T06:15:48.345Z,83.80
2023-12-10T06:18:15.640Z,83.70
2023-12-10T06:20:42.802Z,83.60
2023-12-10T06:23:09.876Z,83.70
2023-12-10T06:25:36.872Z,83.70
2023-12-10T06:28:04.043Z,83.70
2023-12-10T06:30:31.079Z,83.80
2023-12-10T06:32:58.249Z,83.80
2023-12-10T06:35:25.457Z,83.80
2023-12-10T06:37:52.410Z,83.90
2023-12-10T06:40:19.367Z,84.00
2023-12-10T06:42:46.365Z,84.00
2023-12-10T06:45:14.393Z,83.90
2023-12-10T06:47:42.178Z,84.00
2023-12-10T06:50:09.817Z,84.10
2023-12-10T06:52:36.836Z,84.00
2023-12-10T06:55:04.190Z,84.00
2023-12-10T06:57:31.258Z,83.90
2023-12-10T06:59:58.276Z,83.90
2023-12-10T07:02:25.305Z,83.70
2023-12-10T07:04:52.444Z,83.40
2023-12-10T07:07:19.385Z,83.40
2023-12-10T07:09:46.377Z,83.30
2023-12-10T07:12:13.421Z,83.30
2023-12-10T07:14:40.524Z,83.30
2023-12-10T07:17:08.212Z,83.30
2023-12-10T07:19:35.347Z,83.20
2023-12-10T07:22:02.633Z,83.10
2023-12-10T07:24:31.347Z,82.80
2023-12-10T07:26:58.534Z,82.60
2023-12-10T07:29:25.758Z,82.40
2023-12-10T07:31:52.779Z,82.30
2023-12-10T07:34:19.957Z,81.90
2023-12-10T07:36:47.243Z,81.80
2023-12-10T07:39:14.650Z,81.60
2023-12-10T07:41:41.746Z,81.40
2023-12-10T07:44:08.801Z,81.40
2023-12-10T07:46:36.057Z,81.40
2023-12-10T07:49:03.926Z,81.30
2023-12-10T07:51:31.012Z,81.20
2023-12-10T07:53:58.056Z,81.20
2023-12-10T07:56:25.037Z,81.20
2023-12-10T07:58:52.262Z,81.20
2023-12-10T08:01:19.640Z,81.00
2023-12-10T08:03:47.329Z,80.80
2023-12-10T08:06:14.473Z,80.80
2023-12-10T08:08:41.400Z,80.90
2023-12-10T08:11:11.552Z,81.40
2023-12-10T08:13:38.708Z,81.50
2023-12-10T08:16:06.455Z,81.60
2023-12-10T08:18:33.695Z,81.60
2023-12-10T08:21:02.472Z,81.60
2023-12-10T08:23:29.451Z,81.50
2023-12-10T08:25:56.423Z,81.20
2023-12-10T08:28:23.420Z,81.00
2023-12-10T08:30:50.516Z,80.70
2023-12-10T08:33:17.711Z,80.60
2023-12-10T08:35:44.812Z,80.50
2023-12-10T08:38:11.782Z,80.10
2023-12-10T08:40:38.771Z,79.90
2023-12-10T08:43:05.872Z,79.80
2023-12-10T08:45:34.898Z,79.60
2023-12-10T08:48:02.424Z,79.30
2023-12-10T08:50:29.651Z,79.00
2023-12-10T08:52:56.623Z,78.90
2023-12-10T08:55:23.602Z,78.90
2023-12-10T08:57:51.203Z,78.80
2023-12-10T09:00:18.564Z,78.50
2023-12-10T09:02:45.597Z,78.20
2023-12-10T09:05:12.982Z,78.10
2023-12-10T09:07:39.982Z,78.00
2023-12-10T09:10:12.893Z,77.80
2023-12-10T09:12:40.891Z,77.80
2023-12-10T09:15:09.100Z,78.10
2023-12-10T09:17:36.495Z,78.00
2023-12-10T09:20:05.654Z,78.10
2023-12-10T09:22:33.308Z,78.20
2023-12-10T09:25:01.009Z,78.30
2023-12-10T09:27:28.290Z,78.40
2023-12-10T09:29:55.401Z,78.40
2023-12-10T09:32:25.183Z,78.60
2023-12-10T09:34:52.700Z,78.50
2023-12-10T09:37:19.845Z,78.40
2023-12-10T09:39:47.261Z,78.10
2023-12-10T09:42:14.474Z,77.80
2023-12-10T09:44:41.470Z,77.40
2023-12-10T09:47:18.253Z,77.00
2023-12-10T09:49:48.801Z,76.80
2023-12-10T09:52:15.827Z,76.70
2023-12-10T09:54:43.487Z,76.60
2023-12-10T09:57:12.916Z,76.10
2023-12-10T09:59:40.628Z,75.50
2023-12-10T10:02:08.637Z,75.60
2023-12-10T10:04:35.981Z,75.40
2023-12-10T10:07:06.869Z,75.20
2023-12-10T10:09:38.435Z,76.00
2023-12-10T10:12:06.898Z,75.40
2023-12-10T10:14:33.917Z,75.70
2023-12-10T10:17:01.441Z,75.80
2023-12-10T10:19:29.450Z,75.90
2023-12-10T10:21:56.596Z,76.00
2023-12-10T10:24:26.810Z,75.90
2023-12-10T10:26:54.923Z,75.80
2023-12-10T10:29:23.787Z,75.00
2023-12-10T10:31:53.573Z,75.60
2023-12-10T10:34:22.013Z,75.50
2023-12-10T10:36:50.361Z,75.40
2023-12-10T10:39:17.441Z,75.30
2023-12-10T10:41:44.658Z,75.00
2023-12-10T10:44:12.150Z,74.80
2023-12-10T10:46:39.199Z,74.50
2023-12-10T10:49:06.606Z,74.30
2023-12-10T10:51:34.169Z,74.40
2023-12-10T10:54:05.272Z,74.30
2023-12-10T10:56:33.272Z,74.10
2023-12-10T10:59:01.533Z,74.10
2023-12-10T11:01:44.412Z,74.00
2023-12-10T11:04:17.038Z,73.90
2023-12-10T11:06:48.325Z,73.70
2023-12-10T11:09:17.877Z,73.50
2023-12-10T11:11:45.308Z,73.30
2023-12-10T11:14:23.528Z,73.20
2023-12-10T11:17:03.716Z,73.20
2023-12-10T11:19:34.139Z,72.80
2023-12-10T11:22:03.156Z,72.70
2023-12-10T11:24:31.168Z,72.50
2023-12-10T11:26:59.812Z,72.30
2023-12-10T11:29:26.909Z,72.30
2023-12-10T11:31:54.004Z,72.00
2023-12-10T11:34:21.150Z,71.90
2023-12-10T11:36:51.261Z,71.80
2023-12-10T11:39:18.677Z,71.40
2023-12-10T11:41:56.244Z,70.70
2023-12-10T11:44:32.102Z,70.70
2023-12-10T11:47:01.656Z,70.60
2023-12-10T11:49:28.744Z,70.20
2023-12-10T11:51:55.763Z,70.10
2023-12-10T11:54:22.950Z,70.00
2023-12-10T11:56:50.048Z,70.20
2023-12-10T11:59:18.369Z,69.80
2023-12-10T12:01:47.844Z,69.50
2023-12-10T12:04:16.079Z,69.50
2023-12-10T12:06:44.754Z,69.20
2023-12-10T12:09:18.953Z,69.00
2023-12-10T12:11:46.109Z,69.00
2023-12-10T12:14:17.366Z,69.10
2023-12-10T12:16:44.939Z,68.80
2023-12-10T12:19:12.432Z,68.80
2023-12-10T12:21:39.647Z,68.60
2023-12-10T12:24:08.448Z,68.40
2023-12-10T12:26:38.378Z,68.20
2023-12-10T12:29:05.716Z,68.20
2023-12-10T12:31:32.824Z,68.10
2023-12-10T12:33:59.871Z,67.80
2023-12-10T12:36:27.252Z,67.60
2023-12-10T12:38:54.390Z,67.60
2023-12-10T12:41:21.382Z,67.60
2023-12-10T12:43:48.404Z,67.50
2023-12-10T12:46:18.177Z,67.20
2023-12-10T12:48:45.704Z,67.00
2023-12-10T12:51:12.935Z,67.00
2023-12-10T12:54:10.700Z,66.80
2023-12-10T12:56:27.840Z,66.60
2023-12-10T12:58:55.200Z,66.50
2023-12-10T13:01:22.785Z,66.50
2023-12-10T13:03:50.037Z,66.20
2023-12-10T13:06:17.861Z,65.80
2023-12-10T13:08:44.999Z,65.60
2023-12-10T13:11:12.596Z,65.00
2023-12-10T13:13:39.716Z,65.20
2023-12-10T13:16:07.660Z,65.00
2023-12-10T13:18:34.857Z,64.90
2023-12-10T13:21:09.668Z,64.90
2023-12-10T13:23:38.001Z,65.00
2023-12-10T13:26:05.133Z,65.10
2023-12-10T13:28:33.223Z,65.10
2023-12-10T13:31:00.409Z,65.10
2023-12-10T13:33:27.722Z,65.40
2023-12-10T13:35:54.801Z,65.50
2023-12-10T13:38:21.787Z,65.60
2023-12-10T13:40:48.952Z,65.70
2023-12-10T13:43:16.171Z,65.70
2023-12-10T13:45:43.974Z,65.50
2023-12-10T13:48:11.117Z,65.50
2023-12-10T13:50:38.169Z,65.50
2023-12-10T13:53:06.091Z,65.50
2023-12-10T13:55:33.261Z,65.40
2023-12-10T13:58:00.337Z,65.50
2023-12-10T14:00:27.912Z,65.60
2023-12-10T14:02:55.065Z,65.50
2023-12-10T14:05:22.164Z,65.30
2023-12-10T14:07:50.126Z,65.20
2023-12-10T14:10:17.992Z,65.40
2023-12-10T14:12:45.223Z,65.40
2023-12-10T14:15:12.303Z,66.10
2023-12-10T14:17:39.881Z,65.80
2023-12-10T14:20:07.618Z,65.90
2023-12-10T14:22:36.290Z,65.90
2023-12-10T14:25:04.289Z,65.80
2023-12-10T14:27:31.888Z,66.30
2023-12-10T14:29:59.383Z,66.00
2023-12-10T14:32:26.675Z,66.00
2023-12-10T14:34:53.935Z,66.00
2023-12-10T14:37:20.948Z,66.10
2023-12-10T14:39:48.302Z,66.00
2023-12-10T14:42:15.478Z,66.20
2023-12-10T14:44:42.594Z,66.30
2023-12-10T14:47:09.535Z,66.30
2023-12-10T14:49:36.529Z,66.40
2023-12-10T14:52:03.528Z,66.40
2023-12-10T14:54:31.643Z,66.40
2023-12-10T14:57:07.300Z,66.60
2023-12-10T14:59:34.547Z,66.70
2023-12-10T15:02:09.348Z,66.80
2023-12-10T15:04:39.946Z,66.80
2023-12-10T15:07:07.385Z,66.80
2023-12-10T15:09:34.642Z,66.80
2023-12-10T15:12:01.714Z,66.80
2023-12-10T15:14:28.812Z,66.80
2023-12-10T15:16:57.253Z,66.80
2023-12-10T15:19:27.761Z,66.90
2023-12-10T15:21:54.933Z,67.00
2023-12-10T15:24:22.121Z,66.80
2023-12-10T15:26:49.219Z,66.60
2023-12-10T15:29:16.215Z,66.50
2023-12-10T15:31:43.304Z,66.50
2023-12-10T15:34:10.391Z,66.40
2023-12-10T15:36:37.402Z,66.30
2023-12-10T15:39:05.222Z,66.10
2023-12-10T15:41:32.319Z,66.00
2023-12-10T15:43:59.349Z,65.80
2023-12-10T15:46:26.307Z,65.30
2023-12-10T15:48:54.375Z,65.00
2023-12-10T15:51:22.030Z,64.80
2023-12-10T15:53:49.231Z,64.70
2023-12-10T15:56:16.285Z,64.60
2023-12-10T15:58:43.282Z,64.70
2023-12-10T16:01:10.494Z,64.40
2023-12-10T16:03:38.617Z,64.00
2023-12-10T16:06:06.640Z,64.00
2023-12-10T16:08:33.920Z,63.80
2023-12-10T16:11:01.119Z,63.90
2023-12-10T16:13:28.419Z,64.00
2023-12-10T16:15:55.661Z,64.20
2023-12-10T16:18:25.959Z,64.40
2023-12-10T16:20:53.761Z,64.50
2023-12-10T16:23:20.742Z,64.50
2023-12-10T16:25:47.915Z,64.30
2023-12-10T16:28:15.299Z,64.50
2023-12-10T16:30:42.411Z,64.80
2023-12-10T16:33:09.407Z,65.10
2023-12-10T16:35:36.352Z,65.00
2023-12-10T16:38:03.474Z,64.70
2023-12-10T16:40:30.442Z,64.10
2023-12-10T16:42:57.754Z,63.30
2023-12-10T16:45:25.422Z,63.40
2023-12-10T16:47:52.530Z,63.40
2023-12-10T16:50:19.666Z,63.20
2023-12-10T16:52:46.605Z,62.00
2023-12-10T16:55:15.515Z,61.30
2023-12-10T16:57:42.868Z,61.00
2023-12-10T17:00:11.343Z,61.20
2023-12-10T17:02:39.574Z,60.40
2023-12-10T17:05:07.874Z,59.90
2023-12-10T17:07:35.053Z,59.30
2023-12-10T17:10:02.422Z,58.00
2023-12-10T17:12:29.531Z,56.60
2023-12-10T17:14:58.125Z,56.80
2023-12-10T17:17:25.561Z,56.90
2023-12-10T17:19:54.370Z,56.70
2023-12-10T17:22:21.678Z,56.40
2023-12-10T17:24:48.820Z,56.20
2023-12-10T17:27:18.790Z,55.30
2023-12-10T17:29:45.784Z,55.00
2023-12-10T17:32:12.774Z,55.20
2023-12-10T17:34:40.007Z,55.50
2023-12-10T17:37:07.366Z,55.50
2023-12-10T17:39:34.825Z,55.20
2023-12-10T17:42:01.947Z,54.90
2023-12-10T17:44:29.782Z,54.80
2023-12-10T17:46:57.296Z,53.40
2023-12-10T17:49:24.590Z,52.70
2023-12-10T17:51:53.381Z,51.80
2023-12-10T17:54:21.059Z,50.10
2023-12-10T17:56:48.451Z,49.10
2023-12-10T17:59:15.458Z,48.20
2023-12-10T18:01:42.883Z,47.60
2023-12-10T18:04:10.199Z,47.50
2023-12-10T18:06:37.824Z,47.60
2023-12-10T18:09:05.821Z,47.30
2023-12-10T18:11:32.929Z,44.40
2023-12-10T18:14:00.016Z,44.40
2023-12-10T18:16:26.999Z,44.40
2023-12-10T18:18:54.660Z,44.10
2023-12-10T18:21:22.407Z,44.20
2023-12-10T18:23:49.433Z,43.10
2023-12-10T18:26:16.977Z,43.40
2023-12-10T18:28:44.911Z,43.30
2023-12-10T18:31:12.342Z,43.60
2023-12-10T18:33:39.478Z,43.90
2023-12-10T18:36:07.208Z,44.40
2023-12-10T18:38:34.910Z,44.50
2023-12-10T18:41:03.743Z,44.40
2023-12-10T18:43:31.239Z,44.50
2023-12-10T18:45:58.358Z,44.60
2023-12-10T18:48:25.350Z,44.70
2023-12-10T18:50:52.958Z,44.70
2023-12-10T18:53:20.051Z,44.90
2023-12-10T18:55:47.602Z,45.00
2023-12-10T18:58:14.758Z,45.00
2023-12-10T19:00:42.833Z,44.70
2023-12-10T19:03:10.719Z,44.20
2023-12-10T19:05:37.805Z,43.50
2023-12-10T19:08:05.016Z,43.50
2023-12-10T19:10:33.800Z,43.40
2023-12-10T19:13:00.961Z,43.20
2023-12-10T19:15:27.911Z,43.30
2023-12-10T19:17:57.024Z,43.10
2023-12-10T19:20:28.275Z,42.90
2023-12-10T19:22:55.272Z,42.60
2023-12-10T19:25:22.642Z,41.90
2023-12-10T19:27:49.718Z,41.40
2023-12-10T19:30:16.955Z,41.60
2023-12-10T19:32:44.264Z,41.80
2023-12-10T19:35:11.544Z,42.00
2023-12-10T19:37:40.370Z,42.10
2023-12-10T19:40:09.094Z,42.40
2023-12-10T19:42:36.216Z,42.80
2023-12-10T19:45:04.255Z,43.10
2023-12-10T19:47:31.726Z,42.60
2023-12-10T19:49:59.072Z,42.10
2023-12-10T19:52:26.077Z,42.20
2023-12-10T19:54:53.204Z,42.10
2023-12-10T19:57:20.582Z,41.90
2023-12-10T19:59:47.731Z,41.60
2023-12-10T20:02:14.707Z,41.60
2023-12-10T20:04:43.529Z,41.60
2023-12-10T20:07:10.591Z,42.10
2023-12-10T20:09:37.756Z,42.30
2023-12-10T20:12:04.948Z,42.30
2023-12-10T20:14:34.247Z,42.40
2023-12-10T20:17:01.286Z,42.60
2023-12-10T20:19:28.494Z,42.70
2023-12-10T20:21:55.707Z,43.00
2023-12-10T20:24:31.088Z,43.40
2023-12-10T20:27:03.690Z,43.80
2023-12-10T20:29:30.834Z,44.10
2023-12-10T20:31:57.924Z,44.30
2023-12-10T20:34:30.306Z,44.70
2023-12-10T20:37:02.393Z,44.80
2023-12-10T20:39:29.546Z,45.20
2023-12-10T20:41:56.750Z,45.40
2023-12-10T20:44:23.975Z,45.70
2023-12-10T20:46:51.231Z,46.00
2023-12-10T20:49:18.996Z,46.30
2023-12-10T20:51:48.329Z,46.70
2023-12-10T20:54:16.129Z,47.10
2023-12-10T20:56:43.253Z,47.40
2023-12-10T20:59:10.762Z,47.60
2023-12-10T21:01:38.113Z,48.00
2023-12-10T21:04:05.333Z,48.40
2023-12-10T21:06:33.029Z,48.80
2023-12-10T21:09:00.422Z,49.30
2023-12-10T21:11:27.443Z,50.00
2023-12-10T21:13:54.767Z,51.20
2023-12-10T21:16:22.094Z,53.80
2023-12-10T21:18:49.549Z,54.70
2023-12-10T21:21:16.998Z,55.10
2023-12-10T21:23:44.333Z,55.60
2023-12-10T21:26:11.506Z,55.90
2023-12-10T21:28:38.597Z,55.80
2023-12-10T21:31:07.727Z,55.70
2023-12-10T21:33:35.087Z,55.50
2023-12-10T21:36:02.287Z,55.30
2023-12-10T21:38:29.508Z,55.20
2023-12-10T21:40:56.629Z,55.00
2023-12-10T21:43:23.790Z,55.10
2023-12-10T21:45:50.798Z,55.20
2023-12-10T21:48:17.947Z,55.40
2023-12-10T21:50:47.797Z,55.60
2023-12-10T21:53:17.654Z,55.80
2023-12-10T21:55:45.309Z,56.10
2023-12-10T21:58:12.485Z,56.50
2023-12-10T22:00:39.644Z,57.20
2023-12-10T22:03:06.852Z,57.70
2023-12-10T22:05:34.081Z,58.30
2023-12-10T22:08:01.113Z,59.40
2023-12-10T22:10:28.312Z,59.60
2023-12-10T22:12:55.441Z,59.70
2023-12-10T22:15:22.788Z,59.80
2023-12-10T22:17:50.653Z,60.30
2023-12-10T22:20:17.925Z,60.60
2023-12-10T22:22:45.421Z,60.80
2023-12-10T22:25:14.164Z,60.90
2023-12-10T22:27:43.388Z,61.20
2023-12-10T22:30:10.857Z,61.40
2023-12-10T22:32:38.016Z,61.70
2023-12-10T22:35:05.578Z,62.00
2023-12-10T22:37:32.985Z,62.50
2023-12-10T22:40:00.304Z,63.20
2023-12-10T22:42:27.388Z,63.90
2023-12-10T22:44:54.568Z,64.50
2023-12-10T22:47:21.936Z,65.20
2023-12-10T22:49:49.490Z,66.10
2023-12-10T22:52:16.635Z,66.60
2023-12-10T22:54:44.160Z,67.30
2023-12-10T22:57:11.692Z,68.00
2023-12-10T22:59:38.636Z,68.70
2023-12-10T23:02:05.777Z,69.30
2023-12-10T23:04:32.893Z,69.80
2023-12-10T23:07:00.043Z,70.40
2023-12-10T23:09:27.534Z,71.00
2023-12-10T23:11:54.693Z,71.50
2023-12-10T23:14:21.774Z,71.70
2023-12-10T23:16:49.314Z,72.10
2023-12-10T23:19:16.447Z,72.50
2023-12-10T23:21:43.514Z,72.80
2023-12-10T23:24:10.588Z,73.00
2023-12-10T23:26:37.657Z,73.30
2023-12-10T23:29:05.880Z,73.60
2023-12-10T23:31:33.212Z,74.10
2023-12-10T23:34:01.085Z,74.70
2023-12-10T23:36:28.212Z,75.40
2023-12-10T23:38:55.258Z,75.90
2023-12-10T23:41:22.251Z,76.40
2023-12-10T23:43:49.615Z,77.00
2023-12-10T23:46:16.643Z,77.50
2023-12-10T23:48:43.681Z,78.00
2023-12-10T23:51:20.858Z,78.30
2023-12-10T23:53:48.305Z,78.80
2023-12-10T23:56:15.358Z,79.00
2023-12-10T23:58:42.440Z,79.40
